createdAt,value
2022-09-23T00:01:15.459Z,9.05
2022-09-23T00:03:47.457Z,10.10
2022-09-23T00:06:20.391Z,9.45
2022-09-23T00:08:49.720Z,9.45
2022-09-23T00:11:24.288Z,9.93
2022-09-23T00:13:58.797Z,9.63
2022-09-23T00:16:33.448Z,9.63
2022-09-23T00:19:04.601Z,9.23
2022-09-23T00:21:31.790Z,9.05
2022-09-23T00:23:59.878Z,9.77
2022-09-23T00:26:27.598Z,9.18
2022-09-23T00:28:54.992Z,8.85
2022-09-23T00:31:24.653Z,9.40
2022-09-23T00:34:01.897Z,9.05
2022-09-23T00:36:30.225Z,9.55
2022-09-23T00:38:57.103Z,9.25
2022-09-23T00:41:28.133Z,9.40
2022-09-23T00:44:00.558Z,9.40
2022-09-23T00:46:34.502Z,9.55
2022-09-23T00:49:13.653Z,9.82
2022-09-23T00:51:46.935Z,9.07
2022-09-23T00:54:40.576Z,9.77
2022-09-23T00:57:08.643Z,10.10
2022-09-23T00:59:36.311Z,10.68
2022-09-23T01:02:04.654Z,10.25
2022-09-23T01:08:50.857Z,10.57
2022-09-23T01:11:33.750Z,10.10
2022-09-23T01:14:35.325Z,10.20
2022-09-23T01:17:31.808Z,10.55
2022-09-23T01:20:01.757Z,10.25
2022-09-23T01:22:36.537Z,11.38
2022-09-23T01:25:09.216Z,11.32
2022-09-23T01:27:52.304Z,11.27
2022-09-23T01:30:37.391Z,11.60
2022-09-23T01:33:53.261Z,11.15
2022-09-23T01:36:34.185Z,11.40
2022-09-23T01:39:10.728Z,10.32
2022-09-23T01:42:04.764Z,11.07
2022-09-23T01:45:07.216Z,11.60
2022-09-23T01:47:38.825Z,10.80
2022-09-23T01:50:37.779Z,11.23
2022-09-23T01:57:23.202Z,11.05
2022-09-23T01:59:57.970Z,11.77
2022-09-23T02:02:32.250Z,12.18
2022-09-23T02:05:08.564Z,12.70
2022-09-23T02:07:43.960Z,11.82
2022-09-23T02:10:18.551Z,11.23
2022-09-23T02:13:51.391Z,12.13
2022-09-23T02:16:31.991Z,11.55
2022-09-23T02:19:23.749Z,12.52
2022-09-23T02:21:57.702Z,11.48
2022-09-23T02:24:32.154Z,11.45
2022-09-23T02:27:03.860Z,11.73
2022-09-23T02:29:41.412Z,11.38
2022-09-23T02:32:17.853Z,12.18
2022-09-23T02:35:01.295Z,11.38
2022-09-23T02:37:28.780Z,10.98
2022-09-23T02:40:04.211Z,12.00
2022-09-23T02:43:05.083Z,10.68
2022-09-23T02:45:33.743Z,10.90
2022-09-23T02:48:20.272Z,9.98
2022-09-23T02:50:50.480Z,11.25
2022-09-23T02:53:19.901Z,11.60
2022-09-23T02:55:46.894Z,12.88
2022-09-23T02:58:14.311Z,13.10
2022-09-23T03:00:41.281Z,12.88
2022-09-23T03:07:40.861Z,10.98
2022-09-23T03:10:25.847Z,11.27
2022-09-23T03:13:29.996Z,11.82
2022-09-23T03:16:31.420Z,11.02
2022-09-23T03:19:35.032Z,11.77
2022-09-23T03:22:20.973Z,10.80
2022-09-23T03:29:04.018Z,9.82
2022-09-23T03:31:33.503Z,10.30
2022-09-23T03:34:10.228Z,10.85
2022-09-23T03:36:53.730Z,10.32
2022-09-23T03:39:48.008Z,10.85
2022-09-23T03:42:20.858Z,9.60
2022-09-23T03:45:41.746Z,10.63
2022-09-23T03:48:09.173Z,9.48
2022-09-23T03:50:36.243Z,9.77
2022-09-23T03:57:34.680Z,9.52
2022-09-23T04:00:01.917Z,10.05
2022-09-23T04:02:38.925Z,9.68
2022-09-23T04:05:06.870Z,9.85
2022-09-23T04:07:33.922Z,9.40
2022-09-23T04:10:00.761Z,9.90
2022-09-23T04:12:27.641Z,10.38
2022-09-23T04:15:24.905Z,9.77
2022-09-23T04:17:51.967Z,9.60
2022-09-23T04:20:19.283Z,9.75
2022-09-23T04:22:46.189Z,10.18
2022-09-23T04:25:13.154Z,9.65
2022-09-23T04:27:40.131Z,8.77
2022-09-23T04:30:07.658Z,9.00
2022-09-23T04:32:34.517Z,10.45
2022-09-23T04:35:01.564Z,10.00
2022-09-23T04:37:29.453Z,10.13
2022-09-23T04:39:56.675Z,9.50
2022-09-23T04:42:23.647Z,10.02
2022-09-23T04:44:51.691Z,9.55
2022-09-23T04:47:19.324Z,9.88
2022-09-23T04:49:46.247Z,9.85
2022-09-23T04:52:13.124Z,9.38
2022-09-23T04:55:23.891Z,9.32
2022-09-23T04:57:50.975Z,9.18
2022-09-23T05:00:18.185Z,10.38
2022-09-23T05:02:50.547Z,10.00
2022-09-23T05:05:21.101Z,9.27
2022-09-23T05:07:48.636Z,8.77
2022-09-23T05:10:16.487Z,10.18
2022-09-23T05:13:15.000Z,9.30
2022-09-23T05:15:42.035Z,9.05
2022-09-23T05:18:09.276Z,9.98
2022-09-23T05:20:36.492Z,9.88
2022-09-23T05:23:05.546Z,8.90
2022-09-23T05:25:36.309Z,9.65
2022-09-23T05:28:05.260Z,10.20
2022-09-23T05:30:32.200Z,10.23
2022-09-23T05:33:21.233Z,10.30
2022-09-23T05:35:48.927Z,10.00
2022-09-23T05:38:17.017Z,9.40
2022-09-23T05:40:44.113Z,10.13
2022-09-23T05:43:38.052Z,10.77
2022-09-23T05:46:13.589Z,10.50
2022-09-23T05:48:41.572Z,10.98
2022-09-23T05:51:15.162Z,10.88
2022-09-23T05:56:32.772Z,11.50
2022-09-23T05:59:01.561Z,11.48
2022-09-23T06:01:34.453Z,11.65
2022-09-23T06:04:31.810Z,11.82
2022-09-23T06:07:03.047Z,11.60
2022-09-23T06:09:36.160Z,11.27
2022-09-23T06:12:04.782Z,12.18
2022-09-23T06:14:34.044Z,12.25
2022-09-23T06:17:01.032Z,12.23
2022-09-23T06:19:28.132Z,13.00
2022-09-23T06:21:55.114Z,13.70
2022-09-23T06:25:13.801Z,12.73
2022-09-23T06:27:40.787Z,12.18
2022-09-23T06:30:08.367Z,12.57
2022-09-23T06:32:35.860Z,12.18
2022-09-23T06:35:02.709Z,12.40
2022-09-23T06:37:32.070Z,14.65
2022-09-23T06:39:58.981Z,13.45
2022-09-23T06:42:25.830Z,14.10
2022-09-23T06:45:23.994Z,13.20
2022-09-23T06:47:56.303Z,12.90
2022-09-23T06:50:27.238Z,14.50
2022-09-23T06:52:56.852Z,13.82
2022-09-23T06:55:24.807Z,14.68
2022-09-23T06:57:51.766Z,13.77
2022-09-23T07:00:19.283Z,14.45
2022-09-23T07:02:46.555Z,14.80
2022-09-23T07:05:13.668Z,14.88
2022-09-23T07:07:41.291Z,15.65
2022-09-23T07:10:08.471Z,14.23
2022-09-23T07:12:35.338Z,16.27
2022-09-23T07:15:02.282Z,16.10
2022-09-23T07:17:29.585Z,14.90
2022-09-23T07:19:57.428Z,15.75
2022-09-23T07:22:26.403Z,14.85
2022-09-23T07:24:57.041Z,15.50
2022-09-23T07:27:25.857Z,15.88
2022-09-23T07:29:53.424Z,15.88
2022-09-23T07:32:22.127Z,15.52
2022-09-23T07:34:51.224Z,15.80
2022-09-23T07:37:18.482Z,15.75
2022-09-23T07:39:45.774Z,13.98
2022-09-23T07:42:13.687Z,15.05
2022-09-23T07:44:46.843Z,14.85
2022-09-23T07:47:14.337Z,16.40
2022-09-23T07:49:41.407Z,15.18
2022-09-23T07:52:08.301Z,15.18
2022-09-23T07:54:35.857Z,15.85
2022-09-23T07:57:02.907Z,14.75
2022-09-23T07:59:29.733Z,14.13
2022-09-23T08:01:57.254Z,14.82
2022-09-23T08:04:29.725Z,16.02
2022-09-23T08:07:02.594Z,14.73
2022-09-23T08:09:33.399Z,14.90
2022-09-23T08:12:00.769Z,14.63
2022-09-23T08:14:31.723Z,13.13
2022-09-23T08:16:58.594Z,14.88
2022-09-23T08:19:25.750Z,14.30
2022-09-23T08:21:52.600Z,12.90
2022-09-23T08:24:24.259Z,14.10
2022-09-23T08:26:53.365Z,13.52
2022-09-23T08:29:25.194Z,13.50
2022-09-23T08:31:52.796Z,13.25
2022-09-23T08:34:21.745Z,14.10
2022-09-23T08:36:48.720Z,13.07
2022-09-23T08:39:17.925Z,13.48
2022-09-23T08:41:58.999Z,11.13
2022-09-23T08:44:51.181Z,13.05
2022-09-23T08:47:43.799Z,13.98
2022-09-23T08:50:20.421Z,14.25
2022-09-23T08:53:00.083Z,15.25
2022-09-23T08:55:39.486Z,14.80
2022-09-23T08:58:27.153Z,15.43
2022-09-23T09:01:17.777Z,14.90
2022-09-23T09:03:53.846Z,15.07
2022-09-23T09:06:54.401Z,16.38
2022-09-23T09:09:57.848Z,14.07
2022-09-23T09:12:47.664Z,14.95
2022-09-23T09:15:20.865Z,14.73
2022-09-23T09:17:59.240Z,16.83
2022-09-23T09:20:40.079Z,16.77
2022-09-23T09:23:11.853Z,17.58
2022-09-23T09:25:41.546Z,16.33
2022-09-23T09:28:26.672Z,15.77
2022-09-23T09:30:59.472Z,18.02
2022-09-23T09:34:15.845Z,16.58
2022-09-23T09:36:50.107Z,15.20
2022-09-23T09:39:17.349Z,15.20
2022-09-23T09:41:49.816Z,15.25
2022-09-23T09:44:50.710Z,17.80
2022-09-23T09:47:48.576Z,19.80
2022-09-23T09:50:22.183Z,19.35
2022-09-23T09:52:56.097Z,20.65
2022-09-23T09:55:28.907Z,21.92
2022-09-23T09:58:05.687Z,23.00
2022-09-23T10:00:42.993Z,22.80
2022-09-23T10:03:14.069Z,23.80
2022-09-23T10:05:43.870Z,23.42
2022-09-23T10:08:16.571Z,25.20
2022-09-23T10:11:09.319Z,25.48
2022-09-23T10:13:39.371Z,23.70
2022-09-23T10:16:07.092Z,25.48
2022-09-23T10:18:38.403Z,23.98
2022-09-23T10:21:23.090Z,23.25
2022-09-23T10:24:01.806Z,23.85
2022-09-23T10:26:32.437Z,21.98
2022-09-23T10:29:02.645Z,23.17
2022-09-23T10:31:32.314Z,23.88
2022-09-23T10:34:20.888Z,23.13
2022-09-23T10:37:01.685Z,24.88
2022-09-23T10:39:47.031Z,25.83
2022-09-23T10:42:47.114Z,24.75
2022-09-23T10:45:43.873Z,24.02
2022-09-23T10:48:22.717Z,22.42
2022-09-23T10:50:54.818Z,23.90
2022-09-23T10:53:53.430Z,26.02
2022-09-23T10:56:36.118Z,24.08
2022-09-23T10:59:12.220Z,23.70
2022-09-23T11:01:59.196Z,23.63
2022-09-23T11:04:51.527Z,21.30
2022-09-23T11:07:44.357Z,22.05
2022-09-23T11:10:46.839Z,21.55
2022-09-23T11:13:35.860Z,21.42
2022-09-23T11:16:08.788Z,22.13
2022-09-23T11:18:48.551Z,21.05
2022-09-23T11:21:40.610Z,21.95
2022-09-23T11:24:07.912Z,20.25
2022-09-23T11:26:48.099Z,20.13
2022-09-23T11:29:35.408Z,20.45
2022-09-23T11:32:29.201Z,20.85
2022-09-23T11:34:57.153Z,18.83
2022-09-23T11:37:34.978Z,19.83
2022-09-23T11:40:04.830Z,17.88
2022-09-23T11:42:36.691Z,17.33
2022-09-23T11:45:15.030Z,14.52
2022-09-23T11:47:57.250Z,14.02
2022-09-23T11:50:37.224Z,13.50
2022-09-23T11:53:18.887Z,12.98
2022-09-23T11:56:12.668Z,13.43
2022-09-23T11:58:59.885Z,12.18
2022-09-23T12:01:37.939Z,12.75
2022-09-23T12:04:29.938Z,11.10
2022-09-23T12:07:09.344Z,10.68
2022-09-23T12:09:59.785Z,11.77
2022-09-23T12:13:04.994Z,10.32
2022-09-23T12:15:50.792Z,9.50
2022-09-23T12:18:37.388Z,9.65
2022-09-23T12:21:49.357Z,10.82
2022-09-23T12:24:51.869Z,9.60
2022-09-23T12:27:29.555Z,9.82
2022-09-23T12:30:01.482Z,9.55
2022-09-23T12:32:29.619Z,10.40
2022-09-23T12:35:00.561Z,10.05
2022-09-23T12:37:29.009Z,9.32
2022-09-23T12:40:01.964Z,8.73
2022-09-23T12:42:31.279Z,9.52
2022-09-23T12:45:19.340Z,10.63
2022-09-23T12:47:46.460Z,9.27
2022-09-23T12:50:54.061Z,11.23
2022-09-23T12:53:33.422Z,8.85
2022-09-23T12:56:27.805Z,8.68
2022-09-23T12:59:21.260Z,9.00
2022-09-23T13:01:48.456Z,9.70
2022-09-23T13:05:01.828Z,9.20
2022-09-23T13:07:33.955Z,10.70
2022-09-23T13:10:44.335Z,9.38
2022-09-23T13:13:33.666Z,9.88
2022-09-23T13:16:30.119Z,8.48
2022-09-23T13:19:05.783Z,8.43
2022-09-23T13:22:07.793Z,8.25
2022-09-23T13:24:46.178Z,6.95
2022-09-23T13:27:24.549Z,7.95
2022-09-23T13:29:55.881Z,7.10
2022-09-23T13:32:29.296Z,6.50
2022-09-23T13:35:04.284Z,6.65
2022-09-23T13:37:37.552Z,7.10
2022-09-23T13:40:28.210Z,6.45
2022-09-23T13:43:51.801Z,6.53
2022-09-23T13:46:21.624Z,6.70
2022-09-23T13:48:52.304Z,6.38
2022-09-23T13:51:24.798Z,7.15
2022-09-23T13:54:43.045Z,7.28
2022-09-23T13:57:34.496Z,7.35
2022-09-23T14:00:22.339Z,7.60
2022-09-23T14:02:49.423Z,6.57
2022-09-23T14:05:29.496Z,6.32
2022-09-23T14:07:57.046Z,7.72
2022-09-23T14:10:27.625Z,7.63
2022-09-23T14:12:59.305Z,7.88
2022-09-23T14:15:26.680Z,7.43
2022-09-23T14:18:02.810Z,7.80
2022-09-23T14:20:29.839Z,7.90
2022-09-23T14:23:11.423Z,7.78
2022-09-23T14:25:39.885Z,8.02
2022-09-23T14:28:07.302Z,8.90
2022-09-23T14:30:34.324Z,8.63
2022-09-23T14:34:04.100Z,7.90
2022-09-23T14:36:54.613Z,7.43
2022-09-23T14:39:21.653Z,8.35
2022-09-23T14:41:48.456Z,9.63
2022-09-23T14:44:35.785Z,8.65
2022-09-23T14:47:03.137Z,10.00
2022-09-23T14:49:30.127Z,9.18
2022-09-23T14:52:02.830Z,9.88
2022-09-23T14:54:39.737Z,9.52
2022-09-23T14:57:29.961Z,9.80
2022-09-23T15:00:00.769Z,9.63
2022-09-23T15:02:39.279Z,9.38
2022-09-23T15:05:22.068Z,10.63
2022-09-23T15:07:55.542Z,10.77
2022-09-23T15:10:33.417Z,10.43
2022-09-23T15:13:08.411Z,8.93
2022-09-23T15:15:35.952Z,11.02
2022-09-23T15:18:27.821Z,11.00
2022-09-23T15:21:09.726Z,9.35
2022-09-23T15:23:55.059Z,9.45
2022-09-23T15:26:24.757Z,10.63
2022-09-23T15:29:02.405Z,10.32
2022-09-23T15:31:33.004Z,10.82
2022-09-23T15:34:15.145Z,10.50
2022-09-23T15:40:40.456Z,11.13
2022-09-23T15:43:21.120Z,10.55
2022-09-23T15:45:51.715Z,10.63
2022-09-23T15:48:34.827Z,11.38
2022-09-23T15:51:15.299Z,10.75
2022-09-23T15:54:55.930Z,10.77
2022-09-23T16:01:56.981Z,9.25
2022-09-23T16:09:05.837Z,10.23
2022-09-23T16:15:50.352Z,11.25
2022-09-23T16:22:50.644Z,11.48
2022-09-23T16:25:36.526Z,13.77
2022-09-23T16:28:15.110Z,12.10
2022-09-23T16:30:48.957Z,12.15
2022-09-23T16:38:31.880Z,13.32
2022-09-23T16:41:25.736Z,13.15
2022-09-23T16:52:45.684Z,14.57
2022-09-23T16:56:50.172Z,13.27
2022-09-23T17:07:36.952Z,12.32
2022-09-23T17:13:35.069Z,13.35
2022-09-23T17:16:02.793Z,11.88
2022-09-23T17:18:36.775Z,12.93
2022-09-23T17:21:12.680Z,13.27
2022-09-23T17:27:24.609Z,12.50
2022-09-23T17:30:15.111Z,13.48
2022-09-23T17:32:43.251Z,12.80
2022-09-23T17:35:20.969Z,13.93
2022-09-23T17:37:50.776Z,13.38
2022-09-23T17:40:44.348Z,13.82
2022-09-23T17:48:03.417Z,12.95
2022-09-23T17:50:39.001Z,13.50
2022-09-23T17:53:10.444Z,12.98
2022-09-23T17:55:41.171Z,12.45
2022-09-23T17:58:08.220Z,12.27
2022-09-23T18:00:41.336Z,12.50
2022-09-23T18:03:38.809Z,12.90
2022-09-23T18:09:26.259Z,11.15
2022-09-23T18:14:42.830Z,10.32
2022-09-23T18:17:21.300Z,11.07
2022-09-23T18:19:56.478Z,10.32
2022-09-23T18:22:23.733Z,10.00
2022-09-23T18:25:35.432Z,10.27
2022-09-23T18:28:04.442Z,11.00
2022-09-23T18:30:33.016Z,11.10
2022-09-23T18:33:41.369Z,11.38
2022-09-23T18:36:09.347Z,9.80
2022-09-23T18:38:36.301Z,10.52
2022-09-23T18:41:03.737Z,8.93
2022-09-23T18:43:52.446Z,9.10
2022-09-23T18:46:24.829Z,9.07
2022-09-23T18:49:11.362Z,10.02
2022-09-23T18:51:56.183Z,10.38
2022-09-23T18:54:45.574Z,10.20
2022-09-23T18:57:14.719Z,9.15
2022-09-23T18:59:47.394Z,9.77
2022-09-23T19:02:15.479Z,9.43
2022-09-23T19:05:12.009Z,10.25
2022-09-23T19:07:39.510Z,10.00
2022-09-23T19:10:08.450Z,9.45
2022-09-23T19:12:35.456Z,10.10
2022-09-23T19:15:04.652Z,8.68
2022-09-23T19:17:31.805Z,10.40
2022-09-23T19:19:58.791Z,11.27
2022-09-23T19:22:26.003Z,9.77
2022-09-23T19:24:54.132Z,10.15
2022-09-23T19:27:21.090Z,10.73
2022-09-23T19:29:48.069Z,9.85
2022-09-23T19:32:15.933Z,10.18
2022-09-23T19:39:04.454Z,10.82
2022-09-23T19:41:33.557Z,10.68
2022-09-23T19:44:42.182Z,9.73
2022-09-23T19:50:46.674Z,10.20
2022-09-23T19:53:19.708Z,11.00
2022-09-23T19:56:58.064Z,10.30
2022-09-23T20:03:19.261Z,10.20
2022-09-23T20:05:59.063Z,11.10
2022-09-23T20:08:29.496Z,11.45
2022-09-23T20:08:52.781Z,10.07
2022-09-23T20:24:59.278Z,11.25
2022-09-23T20:27:57.356Z,9.02
2022-09-23T20:41:17.539Z,10.43
2022-09-23T20:43:32.358Z,11.05
2022-09-23T20:45:59.440Z,10.20
2022-09-23T20:48:26.786Z,10.10
2022-09-23T20:50:54.017Z,10.82
2022-09-23T20:53:39.827Z,9.80
2022-09-23T20:56:07.048Z,9.48
2022-09-23T20:58:37.373Z,10.75
2022-09-23T21:01:11.687Z,10.05
2022-09-23T21:04:10.228Z,11.43
2022-09-23T21:06:41.529Z,10.48
2022-09-23T21:09:09.760Z,10.30
2022-09-23T21:11:36.970Z,9.63
2022-09-23T21:14:48.269Z,10.05
2022-09-23T21:17:15.621Z,10.20
2022-09-23T21:19:42.638Z,12.15
2022-09-23T21:22:10.613Z,10.27
2022-09-23T21:25:49.481Z,10.45
2022-09-23T21:28:16.616Z,10.25
2022-09-23T21:30:46.370Z,11.27
2022-09-23T21:33:18.263Z,10.00
2022-09-23T21:35:45.122Z,9.95
2022-09-23T21:38:20.775Z,10.90
2022-09-23T21:40:56.930Z,10.05
2022-09-23T21:43:33.706Z,9.52
2022-09-23T21:46:06.936Z,9.43
2022-09-23T21:48:36.183Z,10.07
2022-09-23T21:51:19.562Z,10.43
2022-09-23T21:53:55.856Z,10.25
2022-09-23T21:56:28.757Z,10.05
2022-09-23T21:58:57.882Z,10.18
2022-09-23T22:01:30.562Z,8.90
2022-09-23T22:04:24.598Z,9.50
2022-09-23T22:06:59.118Z,10.02
2022-09-23T22:09:26.389Z,10.10
2022-09-23T22:12:05.364Z,10.48
2022-09-23T22:15:15.655Z,9.88
2022-09-23T22:18:22.337Z,10.02
2022-09-23T22:20:55.320Z,9.60
2022-09-23T22:31:42.013Z,8.60
2022-09-23T22:34:49.585Z,9.23
2022-09-23T22:41:27.917Z,8.18
2022-09-23T22:44:00.658Z,7.75
2022-09-23T22:46:53.580Z,8.50
2022-09-23T22:52:50.000Z,7.80
2022-09-23T22:55:25.677Z,7.95
2022-09-23T22:57:52.788Z,7.65
2022-09-23T23:00:38.849Z,7.65
2022-09-23T23:03:07.078Z,7.25
2022-09-23T23:05:34.016Z,8.05
2022-09-23T23:08:01.475Z,7.63
2022-09-23T23:10:28.543Z,7.85
2022-09-23T23:14:06.190Z,7.65
2022-09-23T23:16:35.909Z,8.05
2022-09-23T23:19:13.305Z,7.43
2022-09-23T23:22:12.920Z,7.70
2022-09-23T23:24:40.114Z,7.05
2022-09-23T23:27:07.396Z,7.15
2022-09-23T23:29:35.898Z,7.38
2022-09-23T23:32:10.320Z,7.68
2022-09-23T23:35:28.998Z,7.57
2022-09-23T23:38:14.247Z,7.10
2022-09-23T23:40:41.600Z,7.50
2022-09-23T23:43:12.488Z,7.18
2022-09-23T23:45:40.052Z,8.25
2022-09-23T23:48:07.199Z,8.10
2022-09-23T23:50:35.165Z,7.97
2022-09-23T23:53:06.749Z,2.63
2022-09-23T23:55:38.801Z,7.70
2022-09-23T23:58:06.232Z,8.05
